createdAt,value
2023-01-21T00:02:14.689Z,62.10
2023-01-21T00:07:16.794Z,53.60
2023-01-21T00:12:20.311Z,57.53
2023-01-21T00:17:22.510Z,108.22
2023-01-21T00:22:24.671Z,79.88
2023-01-21T00:27:28.273Z,53.30
2023-01-21T00:32:30.555Z,34.25
2023-01-21T00:37:32.777Z,30.98
2023-01-21T00:42:38.148Z,34.45
2023-01-21T00:47:41.141Z,30.77
2023-01-21T00:52:46.338Z,30.10
2023-01-21T00:57:49.857Z,26.67
2023-01-21T01:02:52.050Z,31.85
2023-01-21T01:07:54.173Z,28.38
2023-01-21T01:12:57.670Z,28.95
2023-01-21T01:17:59.713Z,33.55
2023-01-21T01:23:01.777Z,30.77
2023-01-21T01:28:05.976Z,33.72
2023-01-21T01:33:08.058Z,28.63
2023-01-21T01:38:13.075Z,27.45
2023-01-21T01:43:19.310Z,32.55
2023-01-21T01:48:27.077Z,28.30
2023-01-21T01:53:30.740Z,29.40
2023-01-21T01:58:34.440Z,26.98
2023-01-21T02:03:40.390Z,30.45
2023-01-21T02:08:44.360Z,28.00
2023-01-21T02:13:50.920Z,32.25
2023-01-21T02:19:03.216Z,28.35
2023-01-21T02:24:38.476Z,29.05
2023-01-21T02:30:07.616Z,30.52
2023-01-21T02:35:16.754Z,29.52
2023-01-21T02:40:26.123Z,29.92
2023-01-21T02:45:36.207Z,32.88
2023-01-21T02:50:44.391Z,30.00
2023-01-21T02:55:46.516Z,30.23
2023-01-21T03:01:02.963Z,26.52
2023-01-21T03:06:35.418Z,27.42
2023-01-21T03:11:38.020Z,32.63
2023-01-21T03:16:45.938Z,30.73
2023-01-21T03:21:50.420Z,27.67
2023-01-21T03:26:56.676Z,28.00
2023-01-21T03:32:04.045Z,26.77
2023-01-21T03:37:13.457Z,28.10
2023-01-21T03:42:15.849Z,27.67
2023-01-21T03:47:24.419Z,28.83
2023-01-21T03:52:28.615Z,29.27
2023-01-21T03:57:30.759Z,30.58
2023-01-21T04:02:32.994Z,28.42
2023-01-21T04:07:37.912Z,29.85
2023-01-21T04:12:39.989Z,31.58
2023-01-21T04:17:42.077Z,28.55
2023-01-21T04:22:45.672Z,31.92
2023-01-21T04:27:50.575Z,27.90
2023-01-21T04:32:52.695Z,31.42
2023-01-21T04:37:56.224Z,30.13
2023-01-21T04:42:58.394Z,32.05
2023-01-21T04:48:00.525Z,26.60
2023-01-21T04:53:04.027Z,28.67
2023-01-21T04:58:06.143Z,28.40
2023-01-21T05:03:08.268Z,27.00
2023-01-21T05:08:11.743Z,25.38
2023-01-21T05:13:13.874Z,25.80
2023-01-21T05:18:15.949Z,24.27
2023-01-21T05:23:19.503Z,27.17
2023-01-21T05:28:21.651Z,25.17
2023-01-21T05:33:23.703Z,26.92
2023-01-21T05:38:27.682Z,22.10
2023-01-21T05:43:30.744Z,30.48
2023-01-21T05:48:32.898Z,26.30
2023-01-21T05:53:36.445Z,28.77
2023-01-21T05:58:38.563Z,28.52
2023-01-21T06:03:40.736Z,23.50
2023-01-21T06:08:44.335Z,25.25
2023-01-21T06:13:46.431Z,24.73
2023-01-21T06:18:48.594Z,26.45
2023-01-21T06:23:52.080Z,31.83
2023-01-21T06:28:56.067Z,25.83
2023-01-21T06:33:58.361Z,24.30
2023-01-21T06:39:01.846Z,31.23
2023-01-21T06:44:04.293Z,39.15
2023-01-21T06:49:06.575Z,35.75
2023-01-21T06:54:10.630Z,31.45
2023-01-21T06:59:12.753Z,43.85
2023-01-21T07:04:14.942Z,30.23
2023-01-21T07:09:21.167Z,32.55
2023-01-21T07:14:23.280Z,32.00
2023-01-21T07:19:25.385Z,28.13
2023-01-21T07:24:29.091Z,27.23
2023-01-21T07:29:31.190Z,32.88
2023-01-21T07:34:33.438Z,29.60
2023-01-21T07:39:36.952Z,30.10
2023-01-21T07:44:39.036Z,38.00
2023-01-21T07:49:41.130Z,30.98
2023-01-21T07:54:44.697Z,31.00
2023-01-21T07:59:46.772Z,29.63
2023-01-21T08:04:48.937Z,30.80
2023-01-21T08:09:52.419Z,24.45
2023-01-21T08:14:54.593Z,32.15
2023-01-21T08:19:56.650Z,36.72
2023-01-21T08:25:00.154Z,33.40
2023-01-21T08:30:04.057Z,32.10
2023-01-21T08:35:07.424Z,22.40
2023-01-21T08:40:12.318Z,29.10
2023-01-21T08:45:15.458Z,34.65
2023-01-21T08:50:17.910Z,28.85
2023-01-21T08:55:23.436Z,31.30
2023-01-21T09:00:25.610Z,39.10
2023-01-21T09:05:27.724Z,27.20
2023-01-21T09:10:31.271Z,28.40
2023-01-21T09:15:38.641Z,26.23
2023-01-21T09:20:40.948Z,20.77
2023-01-21T09:25:44.620Z,24.92
2023-01-21T09:30:47.224Z,23.35
2023-01-21T09:35:53.834Z,18.48
2023-01-21T09:41:04.554Z,20.17
2023-01-21T09:46:17.228Z,17.98
2023-01-21T09:51:24.751Z,20.52
2023-01-21T09:56:34.512Z,19.17
2023-01-21T10:01:40.353Z,15.52
2023-01-21T10:06:50.275Z,16.27
2023-01-21T10:12:10.448Z,15.35
2023-01-21T10:17:18.340Z,13.10
2023-01-21T10:22:24.857Z,14.70
2023-01-21T10:27:32.246Z,15.10
2023-01-21T10:32:36.982Z,12.55
2023-01-21T10:37:46.187Z,8.80
2023-01-21T10:42:58.772Z,8.90
2023-01-21T10:48:10.037Z,8.20
2023-01-21T10:53:20.491Z,4.07
2023-01-21T10:58:30.673Z,5.90
2023-01-21T11:03:38.061Z,4.35
2023-01-21T11:08:43.101Z,4.55
2023-01-21T11:13:46.676Z,4.32
2023-01-21T11:18:48.850Z,4.10
2023-01-21T11:23:55.090Z,5.60
2023-01-21T11:29:11.727Z,6.78
2023-01-21T11:34:16.050Z,3.63
2023-01-21T11:39:18.183Z,4.03
2023-01-21T11:44:23.230Z,5.03
2023-01-21T11:49:29.654Z,4.18
2023-01-21T11:54:38.451Z,4.43
2023-01-21T11:59:47.175Z,3.40
2023-01-21T12:04:52.344Z,5.30
2023-01-21T12:10:03.141Z,2.85
2023-01-21T12:15:29.985Z,3.58
2023-01-21T12:20:37.369Z,2.90
2023-01-21T12:25:47.414Z,3.50
2023-01-21T12:31:00.840Z,4.65
2023-01-21T12:36:10.088Z,2.92
2023-01-21T12:41:16.546Z,2.65
2023-01-21T12:46:25.844Z,3.97
2023-01-21T12:51:33.437Z,5.18
2023-01-21T12:56:42.188Z,5.35
2023-01-21T13:01:53.851Z,6.68
2023-01-21T13:07:04.867Z,4.30
2023-01-21T13:12:15.432Z,6.55
2023-01-21T13:17:21.799Z,6.18
2023-01-21T13:22:33.981Z,6.17
2023-01-21T13:27:44.610Z,5.60
2023-01-21T13:32:53.366Z,5.82
2023-01-21T13:38:09.148Z,6.68
2023-01-21T13:43:29.469Z,5.90
2023-01-21T13:49:01.391Z,7.70
2023-01-21T13:54:18.391Z,7.88
2023-01-21T13:59:25.303Z,7.22
2023-01-21T14:04:34.708Z,6.75
2023-01-21T14:09:42.013Z,6.70
2023-01-21T14:20:31.629Z,7.97
2023-01-21T14:25:50.060Z,5.13
2023-01-21T14:31:01.574Z,8.07
2023-01-21T14:36:11.823Z,7.95
2023-01-21T14:41:14.143Z,7.55
2023-01-21T14:46:26.493Z,8.23
2023-01-21T14:51:31.739Z,7.95
2023-01-21T14:56:35.109Z,10.25
2023-01-21T15:01:45.908Z,7.93
2023-01-21T15:06:53.087Z,10.10
2023-01-21T15:12:01.336Z,9.65
2023-01-21T15:17:04.264Z,12.63
2023-01-21T15:22:20.369Z,11.18
2023-01-21T15:27:23.448Z,13.00
2023-01-21T15:32:29.347Z,11.60
2023-01-21T15:37:37.180Z,13.98
2023-01-21T15:42:48.495Z,12.18
2023-01-21T15:48:16.526Z,19.80
2023-01-21T15:53:42.543Z,16.20
2023-01-21T15:58:53.773Z,16.42
2023-01-21T16:04:25.199Z,13.18
2023-01-21T16:09:39.736Z,17.33
2023-01-21T16:14:55.918Z,14.80
2023-01-21T16:20:00.216Z,18.25
2023-01-21T16:25:09.069Z,16.45
2023-01-21T16:30:14.967Z,15.77
2023-01-21T16:35:17.480Z,16.13
2023-01-21T16:40:27.821Z,23.05
2023-01-21T16:45:31.933Z,16.65
2023-01-21T16:50:34.030Z,16.23
2023-01-21T16:55:44.117Z,20.15
2023-01-21T17:00:58.549Z,18.95
2023-01-21T17:06:05.380Z,21.77
2023-01-21T17:11:11.205Z,19.63
2023-01-21T17:16:23.891Z,27.80
2023-01-21T17:21:37.439Z,23.38
2023-01-21T17:26:46.288Z,30.38
2023-01-21T17:31:56.401Z,37.10
2023-01-21T17:36:59.579Z,26.10
2023-01-21T17:42:05.008Z,30.38
2023-01-21T17:47:22.845Z,24.50
2023-01-21T17:52:25.354Z,34.20
2023-01-21T17:57:37.781Z,69.30
2023-01-21T18:02:39.873Z,51.08
2023-01-21T18:07:42.247Z,45.83
2023-01-21T18:12:48.926Z,27.55
2023-01-21T18:22:57.596Z,24.30
2023-01-21T18:28:01.181Z,24.70
2023-01-21T18:33:03.464Z,25.23
2023-01-21T18:38:11.254Z,25.08
2023-01-21T18:43:15.021Z,31.00
2023-01-21T18:48:22.760Z,43.78
2023-01-21T18:53:24.963Z,27.75
2023-01-21T18:58:28.505Z,28.15
2023-01-21T19:03:30.680Z,27.00
2023-01-21T19:08:32.757Z,26.02
2023-01-21T19:13:36.274Z,22.80
2023-01-21T19:18:38.452Z,25.88
2023-01-21T19:23:42.246Z,22.55
2023-01-21T19:28:45.970Z,28.00
2023-01-21T19:33:48.139Z,20.35
2023-01-21T19:38:54.727Z,28.15
2023-01-21T19:43:58.576Z,20.05
2023-01-21T19:49:03.861Z,23.63
2023-01-21T19:54:06.054Z,23.27
2023-01-21T19:59:12.201Z,21.48
2023-01-21T20:04:14.328Z,22.90
2023-01-21T20:09:16.458Z,21.80
2023-01-21T20:14:19.989Z,18.27
2023-01-21T20:19:22.475Z,18.45
2023-01-21T20:24:24.619Z,18.63
2023-01-21T20:29:28.203Z,15.57
2023-01-21T20:34:30.348Z,19.35
2023-01-21T20:39:33.675Z,15.55
2023-01-21T20:44:37.215Z,18.50
2023-01-21T20:49:39.389Z,15.63
2023-01-21T20:54:41.508Z,14.43
2023-01-21T20:59:45.215Z,12.95
2023-01-21T21:04:47.394Z,12.07
2023-01-21T21:09:49.545Z,13.23
2023-01-21T21:14:53.121Z,12.90
2023-01-21T21:19:55.299Z,15.38
2023-01-21T21:24:57.453Z,12.48
2023-01-21T21:30:01.054Z,13.25
2023-01-21T21:35:03.236Z,13.38
2023-01-21T21:40:07.580Z,16.98
2023-01-21T21:45:11.421Z,12.10
2023-01-21T21:50:14.975Z,16.63
2023-01-21T21:55:18.122Z,18.65
2023-01-21T22:00:25.609Z,15.32
2023-01-21T22:05:28.856Z,12.48
2023-01-21T22:10:33.993Z,14.55
2023-01-21T22:15:44.587Z,14.63
2023-01-21T22:20:51.394Z,17.08
2023-01-21T22:25:54.595Z,16.95
2023-01-21T22:31:05.321Z,15.52
2023-01-21T22:36:13.781Z,13.88
2023-01-21T22:41:18.928Z,15.07
2023-01-21T22:46:27.313Z,15.63
2023-01-21T22:51:30.367Z,13.15
2023-01-21T22:56:50.542Z,14.40
2023-01-21T23:01:55.455Z,15.43
2023-01-21T23:06:57.617Z,13.15
2023-01-21T23:11:59.692Z,13.48
2023-01-21T23:17:03.233Z,11.48
2023-01-21T23:22:07.754Z,12.70
2023-01-21T23:27:10.650Z,12.90
2023-01-21T23:32:14.188Z,13.13
2023-01-21T23:37:16.371Z,11.60
2023-01-21T23:42:18.490Z,12.18
2023-01-21T23:47:22.975Z,10.65
2023-01-21T23:52:26.031Z,11.10
2023-01-21T23:57:28.150Z,8.93
